This is the latest recevied weather packets stored in our database for station/object SP9KB-13. If no packets are shown the sender has not sent any weather packets the latest 10 day(s).
| Time | Temp. | Humidity | Pressure | Rain* | Wind** | Luminosity | Snow |
|---|---|---|---|---|---|---|---|
| 1777875469 | 16.11° C | 48% | 999.4 hPa | 0 mm | - | - | - |
| 1777875168 | 16.11° C | 46% | 999.4 hPa | 0 mm | - | - | - |
| 1777874868 | 14.44° C | 51% | 999.2 hPa | 0 mm | - | - | - |
| 1777874567 | 15° C | 53% | 999.3 hPa | 0 mm | - | - | - |
| 1777874267 | 15° C | 50% | 999.3 hPa | 0 mm | - | - | - |
| 1777873966 | 15.56° C | 49% | 999.2 hPa | 0 mm | - | - | - |
| 1777873666 | 15° C | 51% | 999.2 hPa | 0 mm | - | - | - |
| 1777873365 | 14.44° C | 52% | 999.2 hPa | 0 mm | - | - | - |
| 1777873065 | 14.44° C | 52% | 999.1 hPa | 0 mm | - | - | - |
| 1777872764 | 14.44° C | 56% | 999.2 hPa | 0 mm | - | - | - |
| 1777872464 | 13.89° C | 55% | 999.1 hPa | 0 mm | - | - | - |
| 1777872163 | 14.44° C | 56% | 999.2 hPa | 0 mm | - | - | - |
| 1777871858 | 14.44° C | 53% | 999.2 hPa | 0 mm | - | - | - |
| 1777871557 | 12.78° C | 59% | 999.3 hPa | 0 mm | - | - | - |
| 1777871257 | 11.67° C | 68% | 999.3 hPa | 0 mm | - | - | - |
| 1777870956 | 11.67° C | 72% | 999.2 hPa | 0 mm | - | - | - |
| 1777870655 | 10.56° C | 71% | 999.5 hPa | 0 mm | - | - | - |
| 1777870355 | 9.44° C | 76% | 999.4 hPa | 0 mm | - | - | - |
| 1777870054 | 8.89° C | 76% | 999.4 hPa | 0 mm | - | - | - |
| 1777869754 | 8.33° C | 77% | 999.6 hPa | 0 mm | - | - | - |
| 1777869453 | 7.22° C | 80% | 999.5 hPa | 0 mm | - | - | - |
| 1777869153 | 6.67° C | 83% | 999.2 hPa | 0 mm | - | - | - |
| 1777868852 | 5.56° C | 86% | 999.4 hPa | 0 mm | - | - | - |
| 1777868552 | 4.44° C | 89% | 999.4 hPa | 0 mm | - | - | - |
| 1777868251 | 4.44° C | 92% | 999.4 hPa | 0 mm | - | - | - |
* Rain latest hour (hover to see other rain measurements)
** Current wind speed in m/s (hover to see current wind gust speed)